Pagrindinis puslapis
METAR-TAF:

METAR-TAF

Oro uostai :

Batervortas, Malaizija

platuma: 05-27-58N, ilguma: 100-23-28E, Aukštis: 2 m

Dabartinis oras

Ataskaita buvo paskelbta 41 minutes, ne 05:00 UTC
Vėjas 5 kt iš Vakarų/Pietvakarių, svyruoja nuo Pietų ir Šiaurės/Šiaurės Vakarų
Temperatūra 32°C
Drėgmė 59%
Slėgis 1010 hPa
Matomumas: 8000 m
Mažai debesys ne aukštis 2000 ft

METAR: WMKB 130500Z 24005KT 190V330 8000 FEW020 32/23 Q1010 NOSIG

Laikas: 13:41 (05:41 UTC)

Prognozė

Ataskaita buvo paskelbta 41 minutes, ne 05:00 UTC
Prognozė galioja nuo 13 metu 06 UTC su 14 metu 06 UTC
Vėjas 10 kt iš Vakarų/Šiaurės Vakarų
Matomumas: 8000 m
Mažai debesys ne aukštis 2000 ft
Tapsmas
nuo 13 metu 12 UTC su 13 metu 14 UTC
Vėjas 3 kt nuo kintamojo kryptimis
Matomumas: 7000 m
Mažai debesys ne aukštis 2400 ft

TAF: WMKB 130500Z 1306/1406 30010KT 8000 FEW020 BECMG 1312/1314 VRB03KT 7000 FEW024

Orai ataskaitas ir orų prognozės (METAR, TAF).

turimą stotys yra geltonos ir raudonos taškus žemėlapyje.

Perkelti pele per norėdami pamatyti stoties vardą.

Tada spustelėkite, norėdami matyti oro stebėjimo ir prognozės.

Norėdami pakeisti žemėlapį: spustelėkite ant žalios mygtukų su juodo kryžiaus žemyn,; žalią mygtuką su brūkšneliu, jei norite nutolinti; arba žalių rodyklių gretimoms žemėlapius.


METAR-TAF: